sensor_id;sensor_type;location;lat;lon;timestamp;P1;durP1;ratioP1;P2;durP2;ratioP2
7605;SDS011;3844;53.360;9.738;2023-02-21T00:00:54;39.05;;;17.48;;
7605;SDS011;3844;53.360;9.738;2023-02-21T00:03:13;40.40;;;17.67;;
7605;SDS011;3844;53.360;9.738;2023-02-21T00:05:32;37.33;;;17.63;;
7605;SDS011;3844;53.360;9.738;2023-02-21T00:07:52;35.70;;;16.45;;
7605;SDS011;3844;53.360;9.738;2023-02-21T00:10:12;42.17;;;17.38;;
7605;SDS011;3844;53.360;9.738;2023-02-21T00:12:32;41.28;;;17.40;;
7605;SDS011;3844;53.360;9.738;2023-02-21T00:14:51;41.75;;;17.23;;
7605;SDS011;3844;53.360;9.738;2023-02-21T00:17:10;42.47;;;17.17;;
7605;SDS011;3844;53.360;9.738;2023-02-21T00:19:29;38.15;;;16.80;;
7605;SDS011;3844;53.360;9.738;2023-02-21T00:21:48;37.03;;;17.02;;
7605;SDS011;3844;53.360;9.738;2023-02-21T00:24:11;40.13;;;17.20;;
7605;SDS011;3844;53.360;9.738;2023-02-21T00:28:51;36.95;;;16.23;;
7605;SDS011;3844;53.360;9.738;2023-02-21T00:31:10;40.10;;;17.10;;
7605;SDS011;3844;53.360;9.738;2023-02-21T00:33:29;37.60;;;16.50;;
7605;SDS011;3844;53.360;9.738;2023-02-21T00:35:48;38.95;;;16.65;;
7605;SDS011;3844;53.360;9.738;2023-02-21T00:38:07;37.97;;;16.33;;
7605;SDS011;3844;53.360;9.738;2023-02-21T00:40:28;33.42;;;15.27;;
7605;SDS011;3844;53.360;9.738;2023-02-21T00:42:47;36.78;;;15.75;;
7605;SDS011;3844;53.360;9.738;2023-02-21T00:45:06;31.50;;;14.95;;
7605;SDS011;3844;53.360;9.738;2023-02-21T00:47:25;35.30;;;14.73;;
7605;SDS011;3844;53.360;9.738;2023-02-21T00:49:45;35.05;;;15.25;;
7605;SDS011;3844;53.360;9.738;2023-02-21T00:52:04;33.20;;;14.68;;
7605;SDS011;3844;53.360;9.738;2023-02-21T00:54:23;34.92;;;14.57;;
7605;SDS011;3844;53.360;9.738;2023-02-21T00:56:42;30.85;;;14.35;;
7605;SDS011;3844;53.360;9.738;2023-02-21T00:59:01;34.65;;;14.23;;
7605;SDS011;3844;53.360;9.738;2023-02-21T01:01:20;31.05;;;13.07;;
7605;SDS011;3844;53.360;9.738;2023-02-21T01:03:39;30.23;;;13.30;;
7605;SDS011;3844;53.360;9.738;2023-02-21T01:06:01;26.63;;;13.07;;
7605;SDS011;3844;53.360;9.738;2023-02-21T01:08:21;25.70;;;12.10;;
7605;SDS011;3844;53.360;9.738;2023-02-21T01:10:40;23.67;;;11.80;;
7605;SDS011;3844;53.360;9.738;2023-02-21T01:12:59;27.50;;;12.27;;
7605;SDS011;3844;53.360;9.738;2023-02-21T01:15:18;27.20;;;12.55;;
7605;SDS011;3844;53.360;9.738;2023-02-21T01:17:37;22.48;;;10.82;;
7605;SDS011;3844;53.360;9.738;2023-02-21T01:19:56;24.55;;;11.80;;
7605;SDS011;3844;53.360;9.738;2023-02-21T01:22:18;22.83;;;11.23;;
7605;SDS011;3844;53.360;9.738;2023-02-21T01:24:37;25.08;;;11.35;;
7605;SDS011;3844;53.360;9.738;2023-02-21T01:26:56;23.65;;;10.95;;
7605;SDS011;3844;53.360;9.738;2023-02-21T01:29:16;22.42;;;10.18;;
7605;SDS011;3844;53.360;9.738;2023-02-21T01:31:35;22.90;;;10.88;;
7605;SDS011;3844;53.360;9.738;2023-02-21T01:33:54;24.35;;;10.60;;
7605;SDS011;3844;53.360;9.738;2023-02-21T01:36:13;19.92;;;10.00;;
7605;SDS011;3844;53.360;9.738;2023-02-21T01:38:33;21.15;;;9.77;;
7605;SDS011;3844;53.360;9.738;2023-02-21T01:40:53;21.05;;;10.68;;
7605;SDS011;3844;53.360;9.738;2023-02-21T01:43:13;22.80;;;10.40;;
7605;SDS011;3844;53.360;9.738;2023-02-21T01:45:41;20.85;;;10.32;;
7605;SDS011;3844;53.360;9.738;2023-02-21T01:48:10;21.05;;;10.25;;
7605;SDS011;3844;53.360;9.738;2023-02-21T01:50:30;20.88;;;9.82;;
7605;SDS011;3844;53.360;9.738;2023-02-21T01:52:50;21.13;;;10.15;;
7605;SDS011;3844;53.360;9.738;2023-02-21T01:55:09;22.92;;;9.75;;
7605;SDS011;3844;53.360;9.738;2023-02-21T01:57:29;21.73;;;9.70;;
7605;SDS011;3844;53.360;9.738;2023-02-21T01:59:50;19.17;;;9.55;;
7605;SDS011;3844;53.360;9.738;2023-02-21T02:02:18;14.07;;;6.80;;
7605;SDS011;3844;53.360;9.738;2023-02-21T02:05:12;17.90;;;8.85;;
7605;SDS011;3844;53.360;9.738;2023-02-21T02:07:32;15.45;;;7.85;;
7605;SDS011;3844;53.360;9.738;2023-02-21T02:09:53;18.20;;;8.63;;
7605;SDS011;3844;53.360;9.738;2023-02-21T02:12:23;18.23;;;8.57;;
7605;SDS011;3844;53.360;9.738;2023-02-21T02:17:12;16.58;;;7.82;;
7605;SDS011;3844;53.360;9.738;2023-02-21T02:24:13;15.82;;;7.65;;
7605;SDS011;3844;53.360;9.738;2023-02-21T02:33:38;17.45;;;7.75;;
7605;SDS011;3844;53.360;9.738;2023-02-21T02:38:20;15.93;;;7.38;;
7605;SDS011;3844;53.360;9.738;2023-02-21T02:42:45;16.90;;;7.82;;
7605;SDS011;3844;53.360;9.738;2023-02-21T02:45:04;17.45;;;7.75;;
7605;SDS011;3844;53.360;9.738;2023-02-21T02:47:07;15.95;;;7.80;;
7605;SDS011;3844;53.360;9.738;2023-02-21T02:49:22;14.43;;;7.18;;
7605;SDS011;3844;53.360;9.738;2023-02-21T02:51:26;13.70;;;7.22;;
7605;SDS011;3844;53.360;9.738;2023-02-21T02:53:28;15.45;;;7.28;;
7605;SDS011;3844;53.360;9.738;2023-02-21T02:55:43;12.65;;;5.97;;
7605;SDS011;3844;53.360;9.738;2023-02-21T02:57:51;12.32;;;5.85;;
7605;SDS011;3844;53.360;9.738;2023-02-21T02:59:52;11.57;;;5.78;;
7605;SDS011;3844;53.360;9.738;2023-02-21T03:02:36;11.93;;;5.75;;
7605;SDS011;3844;53.360;9.738;2023-02-21T03:11:24;11.25;;;4.80;;
7605;SDS011;3844;53.360;9.738;2023-02-21T03:13:31;9.93;;;4.65;;
7605;SDS011;3844;53.360;9.738;2023-02-21T03:15:39;9.57;;;4.28;;
7605;SDS011;3844;53.360;9.738;2023-02-21T03:17:58;9.38;;;4.18;;
7605;SDS011;3844;53.360;9.738;2023-02-21T03:20:08;8.27;;;4.10;;
7605;SDS011;3844;53.360;9.738;2023-02-21T03:22:15;8.73;;;3.88;;
7605;SDS011;3844;53.360;9.738;2023-02-21T03:24:21;8.82;;;4.20;;
7605;SDS011;3844;53.360;9.738;2023-02-21T03:26:24;6.90;;;3.08;;
7605;SDS011;3844;53.360;9.738;2023-02-21T03:28:27;10.07;;;3.72;;
7605;SDS011;3844;53.360;9.738;2023-02-21T03:30:29;6.78;;;3.10;;
7605;SDS011;3844;53.360;9.738;2023-02-21T03:32:31;8.15;;;3.10;;
7605;SDS011;3844;53.360;9.738;2023-02-21T03:34:42;5.82;;;2.70;;
7605;SDS011;3844;53.360;9.738;2023-02-21T03:36:43;7.32;;;2.60;;
7605;SDS011;3844;53.360;9.738;2023-02-21T03:38:45;7.15;;;2.90;;
7605;SDS011;3844;53.360;9.738;2023-02-21T03:40:46;8.07;;;2.85;;
7605;SDS011;3844;53.360;9.738;2023-02-21T03:42:46;6.53;;;2.75;;
7605;SDS011;3844;53.360;9.738;2023-02-21T03:44:47;5.53;;;2.67;;
7605;SDS011;3844;53.360;9.738;2023-02-21T03:46:48;6.47;;;3.08;;
7605;SDS011;3844;53.360;9.738;2023-02-21T03:48:49;6.30;;;2.97;;
7605;SDS011;3844;53.360;9.738;2023-02-21T03:50:50;6.75;;;2.83;;
7605;SDS011;3844;53.360;9.738;2023-02-21T03:52:50;6.68;;;2.80;;
7605;SDS011;3844;53.360;9.738;2023-02-21T03:54:51;7.20;;;2.70;;
7605;SDS011;3844;53.360;9.738;2023-02-21T03:56:52;6.38;;;2.60;;
7605;SDS011;3844;53.360;9.738;2023-02-21T03:58:53;5.72;;;2.35;;
7605;SDS011;3844;53.360;9.738;2023-02-21T04:00:54;6.07;;;2.38;;
7605;SDS011;3844;53.360;9.738;2023-02-21T04:02:55;5.80;;;2.13;;
7605;SDS011;3844;53.360;9.738;2023-02-21T04:04:55;4.93;;;2.20;;
7605;SDS011;3844;53.360;9.738;2023-02-21T04:06:56;5.00;;;2.10;;
7605;SDS011;3844;53.360;9.738;2023-02-21T04:08:57;4.78;;;1.95;;
7605;SDS011;3844;53.360;9.738;2023-02-21T04:10:58;5.75;;;1.90;;
7605;SDS011;3844;53.360;9.738;2023-02-21T04:12:58;6.85;;;1.95;;
7605;SDS011;3844;53.360;9.738;2023-02-21T04:14:59;5.60;;;2.20;;
7605;SDS011;3844;53.360;9.738;2023-02-21T04:16:59;5.35;;;2.05;;
7605;SDS011;3844;53.360;9.738;2023-02-21T04:19:01;4.93;;;1.80;;
7605;SDS011;3844;53.360;9.738;2023-02-21T04:21:02;4.25;;;2.20;;
7605;SDS011;3844;53.360;9.738;2023-02-21T04:23:03;6.03;;;2.72;;
7605;SDS011;3844;53.360;9.738;2023-02-21T04:25:03;5.07;;;2.00;;
7605;SDS011;3844;53.360;9.738;2023-02-21T04:27:04;5.35;;;1.90;;
7605;SDS011;3844;53.360;9.738;2023-02-21T04:29:05;4.93;;;2.10;;
7605;SDS011;3844;53.360;9.738;2023-02-21T04:31:06;4.85;;;2.20;;
7605;SDS011;3844;53.360;9.738;2023-02-21T04:33:07;4.68;;;2.00;;
7605;SDS011;3844;53.360;9.738;2023-02-21T04:35:08;5.65;;;1.90;;
7605;SDS011;3844;53.360;9.738;2023-02-21T04:37:08;5.85;;;1.98;;
7605;SDS011;3844;53.360;9.738;2023-02-21T04:39:09;6.28;;;2.00;;
7605;SDS011;3844;53.360;9.738;2023-02-21T04:41:10;4.20;;;1.52;;
7605;SDS011;3844;53.360;9.738;2023-02-21T04:43:11;5.82;;;1.90;;
7605;SDS011;3844;53.360;9.738;2023-02-21T04:45:11;4.22;;;1.90;;
7605;SDS011;3844;53.360;9.738;2023-02-21T04:47:12;4.53;;;1.60;;
7605;SDS011;3844;53.360;9.738;2023-02-21T04:49:13;4.97;;;1.65;;
7605;SDS011;3844;53.360;9.738;2023-02-21T04:51:14;3.80;;;1.42;;
7605;SDS011;3844;53.360;9.738;2023-02-21T04:55:18;3.85;;;1.58;;
7605;SDS011;3844;53.360;9.738;2023-02-21T04:57:19;3.50;;;1.40;;
7605;SDS011;3844;53.360;9.738;2023-02-21T04:59:20;3.53;;;1.48;;
7605;SDS011;3844;53.360;9.738;2023-02-21T05:01:21;4.88;;;2.10;;
7605;SDS011;3844;53.360;9.738;2023-02-21T05:03:25;3.90;;;1.42;;
7605;SDS011;3844;53.360;9.738;2023-02-21T05:05:26;3.63;;;1.58;;
7605;SDS011;3844;53.360;9.738;2023-02-21T05:07:27;4.25;;;1.40;;
7605;SDS011;3844;53.360;9.738;2023-02-21T05:09:27;4.25;;;1.60;;
7605;SDS011;3844;53.360;9.738;2023-02-21T05:11:31;4.57;;;1.40;;
7605;SDS011;3844;53.360;9.738;2023-02-21T05:13:33;3.92;;;1.40;;
7605;SDS011;3844;53.360;9.738;2023-02-21T05:15:34;3.90;;;1.50;;
7605;SDS011;3844;53.360;9.738;2023-02-21T05:17:35;4.38;;;1.50;;
7605;SDS011;3844;53.360;9.738;2023-02-21T05:19:36;5.25;;;1.38;;
7605;SDS011;3844;53.360;9.738;2023-02-21T05:21:36;5.57;;;1.45;;
7605;SDS011;3844;53.360;9.738;2023-02-21T05:23:38;3.40;;;1.40;;
7605;SDS011;3844;53.360;9.738;2023-02-21T05:25:39;3.60;;;1.40;;
7605;SDS011;3844;53.360;9.738;2023-02-21T05:27:40;4.95;;;1.70;;
7605;SDS011;3844;53.360;9.738;2023-02-21T05:29:50;4.82;;;1.70;;
7605;SDS011;3844;53.360;9.738;2023-02-21T05:31:52;4.03;;;1.60;;
7605;SDS011;3844;53.360;9.738;2023-02-21T05:33:53;4.88;;;1.90;;
7605;SDS011;3844;53.360;9.738;2023-02-21T05:35:54;5.28;;;2.13;;
7605;SDS011;3844;53.360;9.738;2023-02-21T05:37:54;4.75;;;2.20;;
7605;SDS011;3844;53.360;9.738;2023-02-21T05:39:55;4.80;;;1.90;;
7605;SDS011;3844;53.360;9.738;2023-02-21T05:41:56;5.55;;;2.55;;
7605;SDS011;3844;53.360;9.738;2023-02-21T05:43:57;4.75;;;1.65;;
7605;SDS011;3844;53.360;9.738;2023-02-21T05:45:58;5.55;;;1.65;;
7605;SDS011;3844;53.360;9.738;2023-02-21T05:47:58;5.47;;;2.10;;
7605;SDS011;3844;53.360;9.738;2023-02-21T05:50:01;6.00;;;1.83;;
7605;SDS011;3844;53.360;9.738;2023-02-21T05:52:03;4.80;;;1.80;;
7605;SDS011;3844;53.360;9.738;2023-02-21T05:54:05;4.68;;;1.90;;
7605;SDS011;3844;53.360;9.738;2023-02-21T05:56:08;3.97;;;1.63;;
7605;SDS011;3844;53.360;9.738;2023-02-21T05:58:09;4.93;;;1.98;;
7605;SDS011;3844;53.360;9.738;2023-02-21T06:00:16;5.63;;;2.08;;
7605;SDS011;3844;53.360;9.738;2023-02-21T06:02:18;4.80;;;2.10;;
7605;SDS011;3844;53.360;9.738;2023-02-21T06:04:18;7.32;;;2.60;;
7605;SDS011;3844;53.360;9.738;2023-02-21T06:06:19;6.53;;;2.47;;
7605;SDS011;3844;53.360;9.738;2023-02-21T06:08:20;7.78;;;2.72;;
7605;SDS011;3844;53.360;9.738;2023-02-21T06:10:20;7.18;;;2.58;;
7605;SDS011;3844;53.360;9.738;2023-02-21T06:12:21;6.22;;;2.70;;
7605;SDS011;3844;53.360;9.738;2023-02-21T06:14:22;7.13;;;2.70;;
7605;SDS011;3844;53.360;9.738;2023-02-21T06:16:23;6.28;;;2.40;;
7605;SDS011;3844;53.360;9.738;2023-02-21T06:18:24;6.85;;;2.50;;
7605;SDS011;3844;53.360;9.738;2023-02-21T06:20:25;5.40;;;2.45;;
7605;SDS011;3844;53.360;9.738;2023-02-21T06:22:26;5.18;;;2.25;;
7605;SDS011;3844;53.360;9.738;2023-02-21T06:24:26;6.28;;;2.50;;
7605;SDS011;3844;53.360;9.738;2023-02-21T06:26:27;5.50;;;2.40;;
7605;SDS011;3844;53.360;9.738;2023-02-21T06:28:28;6.95;;;2.60;;
7605;SDS011;3844;53.360;9.738;2023-02-21T06:30:29;6.07;;;2.50;;
7605;SDS011;3844;53.360;9.738;2023-02-21T06:32:30;6.03;;;2.60;;
7605;SDS011;3844;53.360;9.738;2023-02-21T06:34:31;7.68;;;2.70;;
7605;SDS011;3844;53.360;9.738;2023-02-21T06:36:32;5.43;;;2.38;;
7605;SDS011;3844;53.360;9.738;2023-02-21T06:38:34;6.55;;;2.70;;
7605;SDS011;3844;53.360;9.738;2023-02-21T06:40:36;6.70;;;2.53;;
7605;SDS011;3844;53.360;9.738;2023-02-21T06:42:36;7.13;;;2.70;;
7605;SDS011;3844;53.360;9.738;2023-02-21T06:44:37;5.47;;;2.45;;
7605;SDS011;3844;53.360;9.738;2023-02-21T06:46:39;5.57;;;2.55;;
7605;SDS011;3844;53.360;9.738;2023-02-21T06:48:41;6.82;;;2.47;;
7605;SDS011;3844;53.360;9.738;2023-02-21T06:50:42;6.80;;;2.70;;
7605;SDS011;3844;53.360;9.738;2023-02-21T06:52:43;5.50;;;2.35;;
7605;SDS011;3844;53.360;9.738;2023-02-21T06:54:43;8.82;;;2.65;;
7605;SDS011;3844;53.360;9.738;2023-02-21T06:56:45;6.47;;;2.70;;
7605;SDS011;3844;53.360;9.738;2023-02-21T06:58:45;6.20;;;2.53;;
7605;SDS011;3844;53.360;9.738;2023-02-21T07:00:46;5.70;;;2.42;;
7605;SDS011;3844;53.360;9.738;2023-02-21T07:02:47;6.93;;;2.60;;
7605;SDS011;3844;53.360;9.738;2023-02-21T07:04:48;6.30;;;2.83;;
7605;SDS011;3844;53.360;9.738;2023-02-21T07:06:48;6.53;;;2.90;;
7605;SDS011;3844;53.360;9.738;2023-02-21T07:08:50;6.70;;;3.05;;
7605;SDS011;3844;53.360;9.738;2023-02-21T07:10:50;7.47;;;2.97;;
7605;SDS011;3844;53.360;9.738;2023-02-21T07:12:51;7.28;;;3.00;;
7605;SDS011;3844;53.360;9.738;2023-02-21T07:14:52;8.18;;;3.00;;
7605;SDS011;3844;53.360;9.738;2023-02-21T07:16:54;5.82;;;2.70;;
7605;SDS011;3844;53.360;9.738;2023-02-21T07:18:54;5.85;;;2.58;;
7605;SDS011;3844;53.360;9.738;2023-02-21T07:20:55;7.00;;;2.67;;
7605;SDS011;3844;53.360;9.738;2023-02-21T07:22:56;7.05;;;2.88;;
7605;SDS011;3844;53.360;9.738;2023-02-21T07:25:04;6.38;;;2.70;;
7605;SDS011;3844;53.360;9.738;2023-02-21T07:27:05;5.72;;;2.58;;
7605;SDS011;3844;53.360;9.738;2023-02-21T07:29:06;6.53;;;2.60;;
7605;SDS011;3844;53.360;9.738;2023-02-21T07:31:07;5.90;;;2.42;;
7605;SDS011;3844;53.360;9.738;2023-02-21T07:33:09;5.10;;;2.50;;
7605;SDS011;3844;53.360;9.738;2023-02-21T07:35:11;5.65;;;2.60;;
7605;SDS011;3844;53.360;9.738;2023-02-21T07:37:12;6.38;;;2.55;;
7605;SDS011;3844;53.360;9.738;2023-02-21T07:39:13;5.53;;;2.50;;
7605;SDS011;3844;53.360;9.738;2023-02-21T07:41:14;5.78;;;2.30;;
7605;SDS011;3844;53.360;9.738;2023-02-21T07:43:15;6.13;;;2.55;;
7605;SDS011;3844;53.360;9.738;2023-02-21T07:45:16;6.45;;;2.60;;
7605;SDS011;3844;53.360;9.738;2023-02-21T07:47:17;5.85;;;2.58;;
7605;SDS011;3844;53.360;9.738;2023-02-21T07:49:18;6.22;;;2.40;;
7605;SDS011;3844;53.360;9.738;2023-02-21T07:51:19;6.40;;;2.42;;
7605;SDS011;3844;53.360;9.738;2023-02-21T07:53:20;6.63;;;2.88;;
7605;SDS011;3844;53.360;9.738;2023-02-21T07:55:20;5.18;;;2.60;;
7605;SDS011;3844;53.360;9.738;2023-02-21T07:57:21;5.97;;;2.70;;
7605;SDS011;3844;53.360;9.738;2023-02-21T07:59:22;6.07;;;2.70;;
7605;SDS011;3844;53.360;9.738;2023-02-21T08:01:23;5.88;;;2.45;;
7605;SDS011;3844;53.360;9.738;2023-02-21T08:03:25;6.10;;;2.65;;
7605;SDS011;3844;53.360;9.738;2023-02-21T08:05:26;7.13;;;2.72;;
7605;SDS011;3844;53.360;9.738;2023-02-21T08:07:27;7.13;;;3.00;;
7605;SDS011;3844;53.360;9.738;2023-02-21T08:09:29;6.55;;;2.75;;
7605;SDS011;3844;53.360;9.738;2023-02-21T08:11:31;6.93;;;2.70;;
7605;SDS011;3844;53.360;9.738;2023-02-21T08:13:33;6.30;;;2.72;;
7605;SDS011;3844;53.360;9.738;2023-02-21T08:15:33;7.93;;;2.75;;
7605;SDS011;3844;53.360;9.738;2023-02-21T08:17:34;7.28;;;2.95;;
7605;SDS011;3844;53.360;9.738;2023-02-21T08:19:35;5.72;;;2.70;;
7605;SDS011;3844;53.360;9.738;2023-02-21T08:21:36;9.50;;;3.25;;
7605;SDS011;3844;53.360;9.738;2023-02-21T08:23:37;7.72;;;2.90;;
7605;SDS011;3844;53.360;9.738;2023-02-21T08:25:37;5.75;;;2.60;;
7605;SDS011;3844;53.360;9.738;2023-02-21T08:27:38;6.57;;;2.80;;
7605;SDS011;3844;53.360;9.738;2023-02-21T08:29:40;5.75;;;2.50;;
7605;SDS011;3844;53.360;9.738;2023-02-21T08:31:41;6.15;;;2.50;;
7605;SDS011;3844;53.360;9.738;2023-02-21T08:33:43;7.00;;;2.60;;
7605;SDS011;3844;53.360;9.738;2023-02-21T08:35:45;5.18;;;2.38;;
7605;SDS011;3844;53.360;9.738;2023-02-21T08:37:46;5.95;;;2.45;;
7605;SDS011;3844;53.360;9.738;2023-02-21T08:39:48;7.95;;;2.63;;
7605;SDS011;3844;53.360;9.738;2023-02-21T08:43:52;4.80;;;2.13;;
7605;SDS011;3844;53.360;9.738;2023-02-21T08:45:53;6.05;;;2.47;;
7605;SDS011;3844;53.360;9.738;2023-02-21T08:47:54;6.30;;;2.35;;
7605;SDS011;3844;53.360;9.738;2023-02-21T08:49:55;7.25;;;2.65;;
7605;SDS011;3844;53.360;9.738;2023-02-21T08:51:56;5.97;;;2.20;;
7605;SDS011;3844;53.360;9.738;2023-02-21T08:53:57;6.68;;;2.20;;
7605;SDS011;3844;53.360;9.738;2023-02-21T08:55:58;5.57;;;2.28;;
7605;SDS011;3844;53.360;9.738;2023-02-21T08:57:59;4.63;;;2.20;;
7605;SDS011;3844;53.360;9.738;2023-02-21T09:00:00;5.50;;;2.35;;
7605;SDS011;3844;53.360;9.738;2023-02-21T09:02:03;5.13;;;2.25;;
7605;SDS011;3844;53.360;9.738;2023-02-21T09:04:12;6.15;;;2.70;;
7605;SDS011;3844;53.360;9.738;2023-02-21T09:06:13;5.55;;;2.50;;
7605;SDS011;3844;53.360;9.738;2023-02-21T09:08:14;6.10;;;2.65;;
7605;SDS011;3844;53.360;9.738;2023-02-21T09:10:16;6.93;;;3.00;;
7605;SDS011;3844;53.360;9.738;2023-02-21T09:12:17;6.18;;;2.90;;
7605;SDS011;3844;53.360;9.738;2023-02-21T09:14:18;8.50;;;3.10;;
7605;SDS011;3844;53.360;9.738;2023-02-21T09:16:19;8.82;;;3.13;;
7605;SDS011;3844;53.360;9.738;2023-02-21T09:18:20;6.57;;;3.10;;
7605;SDS011;3844;53.360;9.738;2023-02-21T09:20:22;8.30;;;3.03;;
7605;SDS011;3844;53.360;9.738;2023-02-21T09:22:24;8.55;;;3.45;;
7605;SDS011;3844;53.360;9.738;2023-02-21T09:24:25;9.07;;;3.08;;
7605;SDS011;3844;53.360;9.738;2023-02-21T09:26:27;7.22;;;3.03;;
7605;SDS011;3844;53.360;9.738;2023-02-21T09:28:30;8.40;;;3.30;;
7605;SDS011;3844;53.360;9.738;2023-02-21T09:30:31;7.47;;;3.25;;
7605;SDS011;3844;53.360;9.738;2023-02-21T09:32:32;7.88;;;3.55;;
7605;SDS011;3844;53.360;9.738;2023-02-21T09:34:34;8.85;;;2.72;;
7605;SDS011;3844;53.360;9.738;2023-02-21T09:36:35;8.88;;;3.22;;
7605;SDS011;3844;53.360;9.738;2023-02-21T09:38:36;7.25;;;3.10;;
7605;SDS011;3844;53.360;9.738;2023-02-21T09:43:15;11.07;;;3.50;;
7605;SDS011;3844;53.360;9.738;2023-02-21T09:45:20;11.30;;;3.58;;
7605;SDS011;3844;53.360;9.738;2023-02-21T09:47:32;11.75;;;3.22;;
7605;SDS011;3844;53.360;9.738;2023-02-21T09:49:45;9.65;;;3.17;;
7605;SDS011;3844;53.360;9.738;2023-02-21T09:51:48;8.80;;;3.45;;
7605;SDS011;3844;53.360;9.738;2023-02-21T09:53:51;9.50;;;3.10;;
7605;SDS011;3844;53.360;9.738;2023-02-21T09:56:10;9.88;;;3.10;;
7605;SDS011;3844;53.360;9.738;2023-02-21T09:58:13;7.85;;;3.28;;
7605;SDS011;3844;53.360;9.738;2023-02-21T10:00:17;7.22;;;2.67;;
7605;SDS011;3844;53.360;9.738;2023-02-21T10:02:37;7.88;;;2.85;;
7605;SDS011;3844;53.360;9.738;2023-02-21T10:05:06;8.07;;;2.67;;
7605;SDS011;3844;53.360;9.738;2023-02-21T10:09:42;5.20;;;1.92;;
7605;SDS011;3844;53.360;9.738;2023-02-21T10:16:32;5.57;;;1.90;;
7605;SDS011;3844;53.360;9.738;2023-02-21T10:21:01;6.80;;;1.70;;
7605;SDS011;3844;53.360;9.738;2023-02-21T10:23:15;5.40;;;2.00;;
7605;SDS011;3844;53.360;9.738;2023-02-21T10:25:36;4.53;;;1.58;;
7605;SDS011;3844;53.360;9.738;2023-02-21T10:27:42;5.88;;;1.80;;
7605;SDS011;3844;53.360;9.738;2023-02-21T10:31:56;5.18;;;1.70;;
7605;SDS011;3844;53.360;9.738;2023-02-21T10:34:02;4.28;;;1.70;;
7605;SDS011;3844;53.360;9.738;2023-02-21T10:36:24;5.93;;;1.90;;
7605;SDS011;3844;53.360;9.738;2023-02-21T10:38:26;5.32;;;1.52;;
7605;SDS011;3844;53.360;9.738;2023-02-21T10:44:36;3.13;;;1.25;;
7605;SDS011;3844;53.360;9.738;2023-02-21T10:46:44;3.10;;;1.27;;
7605;SDS011;3844;53.360;9.738;2023-02-21T10:51:29;4.53;;;1.70;;
7605;SDS011;3844;53.360;9.738;2023-02-21T10:53:35;4.30;;;1.60;;
7605;SDS011;3844;53.360;9.738;2023-02-21T10:57:39;3.42;;;1.40;;
7605;SDS011;3844;53.360;9.738;2023-02-21T10:59:42;3.55;;;1.40;;
7605;SDS011;3844;53.360;9.738;2023-02-21T11:01:44;3.70;;;1.38;;
7605;SDS011;3844;53.360;9.738;2023-02-21T11:03:46;5.28;;;1.40;;
7605;SDS011;3844;53.360;9.738;2023-02-21T11:05:50;4.22;;;1.67;;
7605;SDS011;3844;53.360;9.738;2023-02-21T11:08:09;6.35;;;1.85;;
7605;SDS011;3844;53.360;9.738;2023-02-21T11:12:44;4.70;;;1.65;;
7605;SDS011;3844;53.360;9.738;2023-02-21T11:19:11;5.30;;;2.55;;
7605;SDS011;3844;53.360;9.738;2023-02-21T11:21:14;4.65;;;2.13;;
7605;SDS011;3844;53.360;9.738;2023-02-21T11:23:22;7.00;;;2.10;;
7605;SDS011;3844;53.360;9.738;2023-02-21T11:27:36;4.68;;;2.20;;
7605;SDS011;3844;53.360;9.738;2023-02-21T11:30:25;4.55;;;2.10;;
7605;SDS011;3844;53.360;9.738;2023-02-21T11:32:32;6.20;;;2.13;;
7605;SDS011;3844;53.360;9.738;2023-02-21T11:35:06;4.28;;;2.20;;
7605;SDS011;3844;53.360;9.738;2023-02-21T11:37:25;4.20;;;1.90;;
7605;SDS011;3844;53.360;9.738;2023-02-21T11:39:41;3.72;;;1.77;;
7605;SDS011;3844;53.360;9.738;2023-02-21T11:41:52;4.00;;;1.70;;
7605;SDS011;3844;53.360;9.738;2023-02-21T11:43:54;3.17;;;1.42;;
7605;SDS011;3844;53.360;9.738;2023-02-21T11:48:33;3.20;;;1.20;;
7605;SDS011;3844;53.360;9.738;2023-02-21T11:50:41;3.13;;;1.10;;
7605;SDS011;3844;53.360;9.738;2023-02-21T11:55:18;2.05;;;0.80;;
7605;SDS011;3844;53.360;9.738;2023-02-21T11:57:39;2.45;;;0.90;;
7605;SDS011;3844;53.360;9.738;2023-02-21T12:00:05;3.08;;;0.82;;
7605;SDS011;3844;53.360;9.738;2023-02-21T12:08:44;2.53;;;1.10;;
7605;SDS011;3844;53.360;9.738;2023-02-21T12:15:50;2.90;;;1.08;;
7605;SDS011;3844;53.360;9.738;2023-02-21T12:20:27;2.65;;;1.05;;
7605;SDS011;3844;53.360;9.738;2023-02-21T12:22:58;3.55;;;1.20;;
7605;SDS011;3844;53.360;9.738;2023-02-21T12:34:26;2.63;;;0.80;;
7605;SDS011;3844;53.360;9.738;2023-02-21T12:37:02;2.95;;;1.00;;
7605;SDS011;3844;53.360;9.738;2023-02-21T12:42:04;2.58;;;0.90;;
7605;SDS011;3844;53.360;9.738;2023-02-21T12:46:35;2.38;;;0.93;;
7605;SDS011;3844;53.360;9.738;2023-02-21T12:50:57;2.35;;;0.80;;
7605;SDS011;3844;53.360;9.738;2023-02-21T12:53:12;2.88;;;0.90;;
7605;SDS011;3844;53.360;9.738;2023-02-21T12:55:25;2.25;;;0.88;;
7605;SDS011;3844;53.360;9.738;2023-02-21T12:57:48;2.47;;;0.85;;
7605;SDS011;3844;53.360;9.738;2023-02-21T13:04:54;3.83;;;0.90;;
7605;SDS011;3844;53.360;9.738;2023-02-21T13:12:20;3.38;;;0.80;;
7605;SDS011;3844;53.360;9.738;2023-02-21T13:14:40;2.70;;;0.73;;
7605;SDS011;3844;53.360;9.738;2023-02-21T13:17:11;3.17;;;0.70;;
7605;SDS011;3844;53.360;9.738;2023-02-21T13:19:13;1.33;;;0.60;;
7605;SDS011;3844;53.360;9.738;2023-02-21T13:23:40;2.15;;;0.70;;
7605;SDS011;3844;53.360;9.738;2023-02-21T13:26:23;2.92;;;0.60;;
7605;SDS011;3844;53.360;9.738;2023-02-21T13:28:33;2.53;;;0.60;;
7605;SDS011;3844;53.360;9.738;2023-02-21T13:30:39;2.20;;;0.77;;
7605;SDS011;3844;53.360;9.738;2023-02-21T13:32:51;1.60;;;0.60;;
7605;SDS011;3844;53.360;9.738;2023-02-21T13:35:00;2.83;;;0.80;;
7605;SDS011;3844;53.360;9.738;2023-02-21T13:37:16;2.13;;;0.70;;
7605;SDS011;3844;53.360;9.738;2023-02-21T13:39:26;2.95;;;0.90;;
7605;SDS011;3844;53.360;9.738;2023-02-21T13:41:32;2.45;;;0.80;;
7605;SDS011;3844;53.360;9.738;2023-02-21T13:43:36;3.08;;;0.90;;
7605;SDS011;3844;53.360;9.738;2023-02-21T13:45:50;2.38;;;0.95;;
7605;SDS011;3844;53.360;9.738;2023-02-21T13:50:43;3.53;;;1.10;;
7605;SDS011;3844;53.360;9.738;2023-02-21T13:52:35;2.70;;;0.98;;
7605;SDS011;3844;53.360;9.738;2023-02-21T13:57:30;3.20;;;1.30;;
7605;SDS011;3844;53.360;9.738;2023-02-21T13:59:33;3.40;;;1.42;;
7605;SDS011;3844;53.360;9.738;2023-02-21T14:01:39;4.47;;;1.48;;
7605;SDS011;3844;53.360;9.738;2023-02-21T14:03:41;4.25;;;1.80;;
7605;SDS011;3844;53.360;9.738;2023-02-21T14:12:59;4.57;;;1.92;;
7605;SDS011;3844;53.360;9.738;2023-02-21T14:15:05;6.72;;;2.85;;
7605;SDS011;3844;53.360;9.738;2023-02-21T14:17:08;6.60;;;2.45;;
7605;SDS011;3844;53.360;9.738;2023-02-21T14:19:16;5.30;;;2.47;;
7605;SDS011;3844;53.360;9.738;2023-02-21T14:21:23;7.15;;;3.45;;
7605;SDS011;3844;53.360;9.738;2023-02-21T14:23:41;9.10;;;4.03;;
7605;SDS011;3844;53.360;9.738;2023-02-21T14:25:58;9.38;;;4.20;;
7605;SDS011;3844;53.360;9.738;2023-02-21T14:28:00;7.60;;;3.15;;
7605;SDS011;3844;53.360;9.738;2023-02-21T14:34:11;9.98;;;4.88;;
7605;SDS011;3844;53.360;9.738;2023-02-21T14:36:16;12.32;;;5.53;;
7605;SDS011;3844;53.360;9.738;2023-02-21T14:38:22;12.18;;;5.78;;
7605;SDS011;3844;53.360;9.738;2023-02-21T15:00:45;15.00;;;7.45;;
7605;SDS011;3844;53.360;9.738;2023-02-21T15:05:27;18.13;;;7.70;;
7605;SDS011;3844;53.360;9.738;2023-02-21T15:07:43;17.77;;;7.85;;
7605;SDS011;3844;53.360;9.738;2023-02-21T15:10:03;18.35;;;7.85;;
7605;SDS011;3844;53.360;9.738;2023-02-21T15:12:13;16.70;;;8.30;;
7605;SDS011;3844;53.360;9.738;2023-02-21T15:16:24;21.83;;;9.05;;
7605;SDS011;3844;53.360;9.738;2023-02-21T15:18:31;17.67;;;7.90;;
7605;SDS011;3844;53.360;9.738;2023-02-21T15:20:37;20.17;;;9.05;;
7605;SDS011;3844;53.360;9.738;2023-02-21T15:24:40;19.42;;;8.50;;
7605;SDS011;3844;53.360;9.738;2023-02-21T15:27:07;18.67;;;8.73;;
7605;SDS011;3844;53.360;9.738;2023-02-21T15:29:13;18.70;;;8.75;;
7605;SDS011;3844;53.360;9.738;2023-02-21T15:31:17;26.27;;;9.90;;
7605;SDS011;3844;53.360;9.738;2023-02-21T15:33:18;23.40;;;9.32;;
7605;SDS011;3844;53.360;9.738;2023-02-21T15:35:21;23.02;;;9.65;;
7605;SDS011;3844;53.360;9.738;2023-02-21T15:37:26;21.05;;;8.88;;
7605;SDS011;3844;53.360;9.738;2023-02-21T15:39:33;25.50;;;9.85;;
7605;SDS011;3844;53.360;9.738;2023-02-21T15:41:47;23.92;;;9.90;;
7605;SDS011;3844;53.360;9.738;2023-02-21T15:43:51;22.33;;;9.65;;